sensor_id;sensor_type;location;lat;lon;timestamp;temperature;humidity
13998;DHT22;7074;51.508;7.018;2023-07-13T00:01:55;21.30;99.90
13998;DHT22;7074;51.508;7.018;2023-07-13T00:04:23;21.20;99.90
13998;DHT22;7074;51.508;7.018;2023-07-13T00:06:52;21.20;99.90
13998;DHT22;7074;51.508;7.018;2023-07-13T00:09:20;21.20;99.90
13998;DHT22;7074;51.508;7.018;2023-07-13T00:11:50;21.10;99.90
13998;DHT22;7074;51.508;7.018;2023-07-13T00:14:18;21.10;99.90
13998;DHT22;7074;51.508;7.018;2023-07-13T00:16:48;21.00;99.90
13998;DHT22;7074;51.508;7.018;2023-07-13T00:19:17;20.90;99.90
13998;DHT22;7074;51.508;7.018;2023-07-13T00:21:45;20.90;99.90
13998;DHT22;7074;51.508;7.018;2023-07-13T00:24:15;20.80;99.90
13998;DHT22;7074;51.508;7.018;2023-07-13T00:26:47;20.80;99.90
13998;DHT22;7074;51.508;7.018;2023-07-13T00:29:15;20.80;99.90
13998;DHT22;7074;51.508;7.018;2023-07-13T00:31:42;20.70;99.90
13998;DHT22;7074;51.508;7.018;2023-07-13T00:34:09;20.70;99.90
13998;DHT22;7074;51.508;7.018;2023-07-13T00:36:38;20.80;99.90
13998;DHT22;7074;51.508;7.018;2023-07-13T00:39:06;20.70;99.90
13998;DHT22;7074;51.508;7.018;2023-07-13T00:41:33;20.60;99.90
13998;DHT22;7074;51.508;7.018;2023-07-13T00:44:03;20.60;99.90
13998;DHT22;7074;51.508;7.018;2023-07-13T00:46:33;20.60;99.90
13998;DHT22;7074;51.508;7.018;2023-07-13T00:49:04;20.60;99.90
13998;DHT22;7074;51.508;7.018;2023-07-13T00:51:36;20.50;99.90
13998;DHT22;7074;51.508;7.018;2023-07-13T00:54:11;20.50;99.90
13998;DHT22;7074;51.508;7.018;2023-07-13T00:56:40;20.40;99.90
13998;DHT22;7074;51.508;7.018;2023-07-13T00:59:08;20.40;99.90
13998;DHT22;7074;51.508;7.018;2023-07-13T01:01:39;20.40;99.90
13998;DHT22;7074;51.508;7.018;2023-07-13T01:04:06;20.40;99.90
13998;DHT22;7074;51.508;7.018;2023-07-13T01:06:34;20.20;99.90
13998;DHT22;7074;51.508;7.018;2023-07-13T01:09:02;20.20;99.90
13998;DHT22;7074;51.508;7.018;2023-07-13T01:11:32;20.20;99.90
13998;DHT22;7074;51.508;7.018;2023-07-13T01:13:59;20.20;99.90
13998;DHT22;7074;51.508;7.018;2023-07-13T01:16:30;20.20;99.90
13998;DHT22;7074;51.508;7.018;2023-07-13T01:18:58;20.20;99.90
13998;DHT22;7074;51.508;7.018;2023-07-13T01:21:29;20.20;99.90
13998;DHT22;7074;51.508;7.018;2023-07-13T01:23:59;20.20;99.90
13998;DHT22;7074;51.508;7.018;2023-07-13T01:26:26;20.20;99.90
13998;DHT22;7074;51.508;7.018;2023-07-13T01:28:54;20.10;99.90
13998;DHT22;7074;51.508;7.018;2023-07-13T01:31:22;20.10;99.90
13998;DHT22;7074;51.508;7.018;2023-07-13T01:33:51;20.00;99.90
13998;DHT22;7074;51.508;7.018;2023-07-13T01:36:20;19.90;99.90
13998;DHT22;7074;51.508;7.018;2023-07-13T01:38:49;20.00;99.90
13998;DHT22;7074;51.508;7.018;2023-07-13T01:41:16;20.00;99.90
13998;DHT22;7074;51.508;7.018;2023-07-13T01:43:43;19.90;99.90
13998;DHT22;7074;51.508;7.018;2023-07-13T01:46:11;19.80;99.90
13998;DHT22;7074;51.508;7.018;2023-07-13T01:48:39;19.90;99.90
13998;DHT22;7074;51.508;7.018;2023-07-13T01:51:06;19.70;99.90
13998;DHT22;7074;51.508;7.018;2023-07-13T01:53:34;19.80;99.90
13998;DHT22;7074;51.508;7.018;2023-07-13T01:56:03;19.80;99.90
13998;DHT22;7074;51.508;7.018;2023-07-13T01:58:31;19.80;99.90
13998;DHT22;7074;51.508;7.018;2023-07-13T02:00:58;19.80;99.90
13998;DHT22;7074;51.508;7.018;2023-07-13T02:03:27;19.70;99.90
13998;DHT22;7074;51.508;7.018;2023-07-13T02:05:58;19.70;99.90
13998;DHT22;7074;51.508;7.018;2023-07-13T02:08:25;19.70;99.90
13998;DHT22;7074;51.508;7.018;2023-07-13T02:10:52;19.70;99.90
13998;DHT22;7074;51.508;7.018;2023-07-13T02:13:21;19.70;99.90
13998;DHT22;7074;51.508;7.018;2023-07-13T02:15:50;19.60;99.90
13998;DHT22;7074;51.508;7.018;2023-07-13T02:18:18;19.60;99.90
13998;DHT22;7074;51.508;7.018;2023-07-13T02:20:45;19.60;99.90
13998;DHT22;7074;51.508;7.018;2023-07-13T02:23:13;19.60;99.90
13998;DHT22;7074;51.508;7.018;2023-07-13T02:25:40;19.60;99.90
13998;DHT22;7074;51.508;7.018;2023-07-13T02:28:08;19.50;99.90
13998;DHT22;7074;51.508;7.018;2023-07-13T02:30:37;19.50;99.90
13998;DHT22;7074;51.508;7.018;2023-07-13T02:33:05;19.50;99.90
13998;DHT22;7074;51.508;7.018;2023-07-13T02:35:32;19.50;99.90
13998;DHT22;7074;51.508;7.018;2023-07-13T02:37:59;19.40;99.90
13998;DHT22;7074;51.508;7.018;2023-07-13T02:40:26;19.40;99.90
13998;DHT22;7074;51.508;7.018;2023-07-13T02:42:54;19.40;99.90
13998;DHT22;7074;51.508;7.018;2023-07-13T02:45:21;19.40;99.90
13998;DHT22;7074;51.508;7.018;2023-07-13T02:47:50;19.40;99.90
13998;DHT22;7074;51.508;7.018;2023-07-13T02:50:17;19.30;99.90
13998;DHT22;7074;51.508;7.018;2023-07-13T02:52:44;19.30;99.90
13998;DHT22;7074;51.508;7.018;2023-07-13T02:55:11;19.20;99.90
13998;DHT22;7074;51.508;7.018;2023-07-13T02:57:39;19.20;99.90
13998;DHT22;7074;51.508;7.018;2023-07-13T03:00:09;19.20;99.90
13998;DHT22;7074;51.508;7.018;2023-07-13T03:02:36;19.20;99.90
13998;DHT22;7074;51.508;7.018;2023-07-13T03:05:07;19.20;99.90
13998;DHT22;7074;51.508;7.018;2023-07-13T03:07:39;19.20;99.90
13998;DHT22;7074;51.508;7.018;2023-07-13T03:10:07;19.20;99.90
13998;DHT22;7074;51.508;7.018;2023-07-13T03:12:42;19.10;99.90
13998;DHT22;7074;51.508;7.018;2023-07-13T03:15:17;19.10;99.90
13998;DHT22;7074;51.508;7.018;2023-07-13T03:17:48;19.10;99.90
13998;DHT22;7074;51.508;7.018;2023-07-13T03:20:17;19.10;99.90
13998;DHT22;7074;51.508;7.018;2023-07-13T03:22:45;19.00;99.90
13998;DHT22;7074;51.508;7.018;2023-07-13T03:25:13;19.00;99.90
13998;DHT22;7074;51.508;7.018;2023-07-13T03:27:42;19.00;99.90
13998;DHT22;7074;51.508;7.018;2023-07-13T03:30:10;19.00;99.90
13998;DHT22;7074;51.508;7.018;2023-07-13T03:32:37;18.90;99.90
13998;DHT22;7074;51.508;7.018;2023-07-13T03:35:05;18.80;99.90
13998;DHT22;7074;51.508;7.018;2023-07-13T03:37:34;18.90;99.90
13998;DHT22;7074;51.508;7.018;2023-07-13T03:40:12;18.90;99.90
13998;DHT22;7074;51.508;7.018;2023-07-13T03:42:42;18.90;99.90
13998;DHT22;7074;51.508;7.018;2023-07-13T03:45:12;18.90;99.90
13998;DHT22;7074;51.508;7.018;2023-07-13T03:47:39;18.90;99.90
13998;DHT22;7074;51.508;7.018;2023-07-13T03:50:07;18.90;99.90
13998;DHT22;7074;51.508;7.018;2023-07-13T03:52:36;18.90;99.90
13998;DHT22;7074;51.508;7.018;2023-07-13T03:55:04;18.80;99.90
13998;DHT22;7074;51.508;7.018;2023-07-13T03:57:32;18.90;99.90
13998;DHT22;7074;51.508;7.018;2023-07-13T04:00:04;18.90;99.90
13998;DHT22;7074;51.508;7.018;2023-07-13T04:02:41;18.80;99.90
13998;DHT22;7074;51.508;7.018;2023-07-13T04:05:09;18.90;99.90
13998;DHT22;7074;51.508;7.018;2023-07-13T04:07:38;19.00;99.90
13998;DHT22;7074;51.508;7.018;2023-07-13T04:10:07;19.00;99.90
13998;DHT22;7074;51.508;7.018;2023-07-13T08:09:40;22.70;99.90
13998;DHT22;7074;51.508;7.018;2023-07-13T08:12:28;22.90;99.90
13998;DHT22;7074;51.508;7.018;2023-07-13T08:15:47;22.80;99.90
13998;DHT22;7074;51.508;7.018;2023-07-13T08:26:00;23.00;99.90
13998;DHT22;7074;51.508;7.018;2023-07-13T08:30:10;23.00;99.90
13998;DHT22;7074;51.508;7.018;2023-07-13T15:48:50;23.40;99.90
13998;DHT22;7074;51.508;7.018;2023-07-13T15:51:31;23.20;99.90
13998;DHT22;7074;51.508;7.018;2023-07-13T15:57:41;22.50;99.90
13998;DHT22;7074;51.508;7.018;2023-07-13T16:00:58;22.30;99.90
13998;DHT22;7074;51.508;7.018;2023-07-13T16:07:36;22.40;99.90
13998;DHT22;7074;51.508;7.018;2023-07-13T16:10:40;22.40;99.90
13998;DHT22;7074;51.508;7.018;2023-07-13T16:17:49;22.40;99.90
13998;DHT22;7074;51.508;7.018;2023-07-13T16:24:31;22.30;99.90
13998;DHT22;7074;51.508;7.018;2023-07-13T16:28:13;22.30;99.90
13998;DHT22;7074;51.508;7.018;2023-07-13T16:31:21;22.40;99.90
13998;DHT22;7074;51.508;7.018;2023-07-13T16:35:11;22.40;99.90
13998;DHT22;7074;51.508;7.018;2023-07-13T16:38:49;22.50;99.90
